createdAt,value
2019-03-10T00:00:30.006Z,11.40
2019-03-10T00:02:59.189Z,11.40
2019-03-10T00:05:28.234Z,11.40
2019-03-10T00:07:57.459Z,11.40
2019-03-10T00:10:26.660Z,11.40
2019-03-10T00:12:55.826Z,11.40
2019-03-10T00:15:24.871Z,11.40
2019-03-10T00:17:53.994Z,11.40
2019-03-10T00:20:23.414Z,11.30
2019-03-10T00:22:52.437Z,11.40
2019-03-10T00:25:21.839Z,11.40
2019-03-10T00:27:50.916Z,11.40
2019-03-10T00:30:20.149Z,11.40
2019-03-10T00:32:49.416Z,11.50
2019-03-10T00:35:19.889Z,11.40
2019-03-10T00:37:48.933Z,11.40
2019-03-10T00:40:40.337Z,11.40
2019-03-10T00:43:29.527Z,11.40
2019-03-10T00:46:35.337Z,11.40
2019-03-10T00:49:13.345Z,11.40
2019-03-10T00:52:07.994Z,11.40
2019-03-10T00:54:37.218Z,11.40
2019-03-10T00:57:06.867Z,11.50
2019-03-10T00:59:36.139Z,11.40
2019-03-10T01:02:05.303Z,11.50
2019-03-10T01:04:34.407Z,11.50
2019-03-10T01:07:22.988Z,11.50
2019-03-10T01:09:51.957Z,11.50
2019-03-10T01:12:21.221Z,11.50
2019-03-10T01:14:50.323Z,11.50
2019-03-10T01:17:20.047Z,11.40
2019-03-10T01:19:49.888Z,11.50
2019-03-10T01:22:19.373Z,11.50
2019-03-10T01:24:48.571Z,11.50
2019-03-10T01:27:17.988Z,11.50
2019-03-10T01:29:47.099Z,11.40
2019-03-10T01:32:35.955Z,11.50
2019-03-10T01:35:16.773Z,11.50
2019-03-10T01:37:45.776Z,11.50
2019-03-10T01:40:14.799Z,11.50
2019-03-10T01:42:43.997Z,11.50
2019-03-10T01:45:13.720Z,11.50
2019-03-10T01:47:42.995Z,11.50
2019-03-10T01:50:14.001Z,11.50
2019-03-10T01:52:43.114Z,11.50
2019-03-10T01:55:12.427Z,11.50
2019-03-10T01:57:41.721Z,11.50
2019-03-10T02:00:13.593Z,11.50
2019-03-10T02:02:42.601Z,11.50
2019-03-10T02:05:12.014Z,11.60
2019-03-10T02:07:41.078Z,11.50
2019-03-10T02:10:11.883Z,11.50
2019-03-10T02:12:41.014Z,11.60
2019-03-10T02:15:15.328Z,11.60
2019-03-10T02:17:44.752Z,11.50
2019-03-10T02:20:16.420Z,11.60
2019-03-10T02:22:45.715Z,11.60
2019-03-10T02:25:14.909Z,11.60
2019-03-10T02:27:43.989Z,11.60
2019-03-10T02:30:15.766Z,11.50
2019-03-10T02:32:44.795Z,11.50
2019-03-10T02:35:13.842Z,11.50
2019-03-10T02:37:43.439Z,11.50
2019-03-10T02:40:12.468Z,11.40
2019-03-10T02:42:41.431Z,11.30
2019-03-10T02:45:11.059Z,11.40
2019-03-10T02:47:40.165Z,11.30
2019-03-10T02:50:12.545Z,11.20
2019-03-10T02:52:41.711Z,11.30
2019-03-10T02:55:10.816Z,11.20
2019-03-10T02:57:39.909Z,11.20
2019-03-10T03:00:11.701Z,11.20
2019-03-10T03:02:40.889Z,11.20
2019-03-10T03:05:11.415Z,11.10
2019-03-10T03:07:40.461Z,11.00
2019-03-10T03:10:13.988Z,11.00
2019-03-10T03:12:43.326Z,11.00
2019-03-10T03:15:12.581Z,11.00
2019-03-10T03:17:41.909Z,11.00
2019-03-10T03:20:12.817Z,11.00
2019-03-10T03:22:41.875Z,11.00
2019-03-10T03:25:12.133Z,11.00
2019-03-10T03:27:41.178Z,11.00
2019-03-10T03:30:13.243Z,11.00
2019-03-10T03:32:42.378Z,11.00
2019-03-10T03:35:43.400Z,11.00
2019-03-10T03:38:12.389Z,11.00
2019-03-10T03:40:47.657Z,11.00
2019-03-10T03:43:16.646Z,11.00
2019-03-10T03:45:45.688Z,11.00
2019-03-10T03:48:14.887Z,10.90
2019-03-10T03:50:44.004Z,10.90
2019-03-10T03:53:13.411Z,10.90
2019-03-10T03:55:42.546Z,10.90
2019-03-10T03:58:11.585Z,10.90
2019-03-10T04:00:42.468Z,10.90
2019-03-10T04:03:11.618Z,10.90
2019-03-10T04:05:40.583Z,10.90
2019-03-10T04:08:09.578Z,10.90
2019-03-10T04:10:38.683Z,10.90
2019-03-10T04:13:08.006Z,10.90
2019-03-10T04:15:37.226Z,10.90
2019-03-10T04:18:06.365Z,10.90
2019-03-10T04:20:35.536Z,10.90
2019-03-10T04:23:04.773Z,10.90
2019-03-10T04:25:33.745Z,10.90
2019-03-10T04:28:02.785Z,10.90
2019-03-10T04:30:31.759Z,10.90
2019-03-10T04:33:00.710Z,10.90
2019-03-10T04:35:29.811Z,10.90
2019-03-10T04:37:58.935Z,10.90
2019-03-10T04:40:28.096Z,10.90
2019-03-10T04:42:57.257Z,10.80
2019-03-10T04:45:26.315Z,10.80
2019-03-10T04:47:55.276Z,10.80
2019-03-10T04:50:24.252Z,10.80
2019-03-10T04:52:53.244Z,10.80
2019-03-10T04:55:36.089Z,10.80
2019-03-10T04:58:07.223Z,10.80
2019-03-10T05:00:37.919Z,10.80
2019-03-10T05:03:07.075Z,10.80
2019-03-10T05:05:36.273Z,10.80
2019-03-10T05:08:05.366Z,10.70
2019-03-10T05:10:34.336Z,10.60
2019-03-10T05:13:03.370Z,10.50
2019-03-10T05:15:32.454Z,10.50
2019-03-10T05:18:01.471Z,10.40
2019-03-10T05:20:30.575Z,10.40
2019-03-10T05:23:28.645Z,10.40
2019-03-10T05:25:58.127Z,10.40
2019-03-10T05:28:28.385Z,10.40
2019-03-10T05:30:57.570Z,10.40
2019-03-10T05:33:26.508Z,10.40
2019-03-10T05:35:55.813Z,10.40
2019-03-10T05:38:24.770Z,10.40
2019-03-10T05:40:53.731Z,10.40
2019-03-10T05:43:22.793Z,10.40
2019-03-10T05:45:51.983Z,10.50
2019-03-10T05:48:20.943Z,10.40
2019-03-10T05:50:49.938Z,10.40
2019-03-10T05:53:18.890Z,10.30
2019-03-10T05:55:47.905Z,10.30
2019-03-10T05:58:16.901Z,10.30
2019-03-10T06:00:46.022Z,10.30
2019-03-10T06:03:15.044Z,10.30
2019-03-10T06:05:44.000Z,10.30
2019-03-10T06:08:12.957Z,10.30
2019-03-10T06:10:42.258Z,10.30
2019-03-10T06:13:11.228Z,10.20
2019-03-10T06:15:40.246Z,10.30
2019-03-10T06:18:13.513Z,10.20
2019-03-10T06:20:40.342Z,10.20
2019-03-10T06:23:09.516Z,10.20
2019-03-10T06:25:38.522Z,10.20
2019-03-10T06:28:07.617Z,10.20
2019-03-10T06:30:36.588Z,10.30
2019-03-10T06:33:05.933Z,10.30
2019-03-10T06:35:34.963Z,10.30
2019-03-10T06:38:04.148Z,10.30
2019-03-10T06:40:33.103Z,10.30
2019-03-10T06:43:02.164Z,10.30
2019-03-10T06:45:31.289Z,10.40
2019-03-10T06:48:00.343Z,10.40
2019-03-10T06:50:29.482Z,10.50
2019-03-10T06:52:58.606Z,10.50
2019-03-10T06:55:27.897Z,10.60
2019-03-10T06:57:57.082Z,10.60
2019-03-10T07:00:26.167Z,10.70
2019-03-10T07:02:55.131Z,10.70
2019-03-10T07:05:24.260Z,10.80
2019-03-10T07:07:53.337Z,10.90
2019-03-10T07:10:22.400Z,10.90
2019-03-10T07:12:51.607Z,11.00
2019-03-10T07:15:20.828Z,11.00
2019-03-10T07:17:50.219Z,11.10
2019-03-10T07:20:20.312Z,11.20
2019-03-10T07:22:49.639Z,11.30
2019-03-10T07:25:19.179Z,11.30
2019-03-10T07:27:53.019Z,11.50
2019-03-10T07:30:41.991Z,11.60
2019-03-10T07:33:12.654Z,11.70
2019-03-10T07:35:58.951Z,11.80
2019-03-10T07:38:29.675Z,11.90
2019-03-10T07:41:03.744Z,12.00
2019-03-10T07:43:40.329Z,12.10
2019-03-10T07:46:27.441Z,12.20
2019-03-10T07:49:14.736Z,12.30
2019-03-10T07:51:45.712Z,12.40
2019-03-10T07:54:29.298Z,12.50
2019-03-10T07:57:00.076Z,12.60
2019-03-10T07:59:36.887Z,12.60
2019-03-10T08:02:10.749Z,12.60
2019-03-10T08:04:58.224Z,12.60
2019-03-10T08:07:31.848Z,12.50
2019-03-10T08:10:02.951Z,12.50
2019-03-10T08:12:36.641Z,12.40
2019-03-10T08:15:15.681Z,12.40
2019-03-10T08:17:52.071Z,12.30
2019-03-10T08:20:22.971Z,12.60
2019-03-10T08:23:08.613Z,12.70
2019-03-10T08:25:39.355Z,12.60
2019-03-10T08:28:13.372Z,12.30
2019-03-10T08:30:47.199Z,12.20
2019-03-10T08:33:17.985Z,12.10
2019-03-10T08:35:51.477Z,12.10
2019-03-10T08:38:28.221Z,12.00
2019-03-10T08:41:07.825Z,11.90
2019-03-10T08:43:38.524Z,11.90
2019-03-10T08:46:27.807Z,11.80
2019-03-10T08:49:04.366Z,11.80
2019-03-10T08:51:34.953Z,11.80
2019-03-10T08:54:08.762Z,11.80
2019-03-10T08:56:57.728Z,11.70
2019-03-10T08:59:28.522Z,11.70
2019-03-10T09:01:59.172Z,11.60
2019-03-10T09:04:29.959Z,11.70
2019-03-10T09:07:12.546Z,11.70
2019-03-10T09:09:46.400Z,11.70
2019-03-10T09:12:17.111Z,11.70
2019-03-10T09:14:50.689Z,11.70
2019-03-10T09:17:39.864Z,11.70
2019-03-10T09:20:16.534Z,11.70
2019-03-10T09:22:56.043Z,11.70
2019-03-10T09:25:26.766Z,11.70
2019-03-10T09:28:00.334Z,11.70
2019-03-10T09:30:46.103Z,11.80
2019-03-10T09:33:33.287Z,11.80
2019-03-10T09:36:04.037Z,11.80
2019-03-10T09:38:40.419Z,11.80
2019-03-10T09:41:27.399Z,11.80
2019-03-10T09:44:10.001Z,11.80
2019-03-10T09:46:46.738Z,11.80
2019-03-10T09:49:20.617Z,11.80
2019-03-10T09:51:59.974Z,11.80
2019-03-10T09:54:39.781Z,11.80
2019-03-10T09:57:26.846Z,11.80
2019-03-10T09:59:57.694Z,11.80
2019-03-10T10:02:37.700Z,11.80
2019-03-10T10:05:10.175Z,11.80
2019-03-10T10:07:40.962Z,11.80
2019-03-10T10:10:18.019Z,11.90
2019-03-10T10:13:03.818Z,12.00
2019-03-10T10:15:34.478Z,12.10
2019-03-10T10:18:05.315Z,12.20
2019-03-10T10:20:54.366Z,12.30
2019-03-10T10:23:25.060Z,12.50
2019-03-10T10:26:01.592Z,12.70
2019-03-10T10:28:54.814Z,12.90
2019-03-10T10:31:31.289Z,13.00
2019-03-10T10:34:07.775Z,13.20
2019-03-10T10:36:41.100Z,13.30
2019-03-10T10:39:18.940Z,13.40
2019-03-10T10:41:52.563Z,13.50
2019-03-10T10:44:25.993Z,13.60
2019-03-10T10:46:59.872Z,13.60
2019-03-10T10:49:39.553Z,13.60
2019-03-10T10:52:19.624Z,13.60
2019-03-10T10:54:58.791Z,13.50
2019-03-10T10:57:32.283Z,13.50
2019-03-10T11:00:08.817Z,13.50
2019-03-10T11:02:51.574Z,13.60
2019-03-10T11:05:28.163Z,13.60
2019-03-10T11:08:04.489Z,13.80
2019-03-10T11:10:41.433Z,13.90
2019-03-10T11:13:12.148Z,13.90
2019-03-10T11:15:42.929Z,14.00
2019-03-10T11:18:16.219Z,14.10
2019-03-10T11:21:03.652Z,14.10
2019-03-10T11:23:39.957Z,14.10
2019-03-10T11:26:10.615Z,14.10
2019-03-10T11:28:41.350Z,14.00
2019-03-10T11:31:13.914Z,13.80
2019-03-10T11:34:00.484Z,13.70
2019-03-10T11:36:33.931Z,13.40
2019-03-10T11:39:22.517Z,13.10
2019-03-10T11:41:59.113Z,12.90
2019-03-10T11:44:32.920Z,12.90
2019-03-10T11:47:19.958Z,12.80
2019-03-10T11:49:50.815Z,12.70
2019-03-10T11:52:24.503Z,12.70
2019-03-10T11:54:58.535Z,12.60
2019-03-10T11:57:29.370Z,12.60
2019-03-10T12:00:00.336Z,12.50
2019-03-10T12:02:39.957Z,12.40
2019-03-10T12:05:22.255Z,12.40
2019-03-10T12:08:02.657Z,12.50
2019-03-10T12:10:31.871Z,12.50
2019-03-10T12:13:01.316Z,12.50
2019-03-10T12:18:19.952Z,12.70
2019-03-10T12:20:49.139Z,12.90
2019-03-10T12:23:18.333Z,13.00
2019-03-10T12:25:47.455Z,13.00
2019-03-10T12:28:16.513Z,13.10
2019-03-10T12:30:45.744Z,13.30
2019-03-10T12:33:14.753Z,13.40
2019-03-10T12:35:43.778Z,13.50
2019-03-10T12:38:12.975Z,13.60
2019-03-10T12:40:42.037Z,13.70
2019-03-10T12:43:11.411Z,13.80
2019-03-10T12:45:40.567Z,13.90
2019-03-10T12:48:09.688Z,13.90
2019-03-10T12:50:38.880Z,13.90
2019-03-10T12:53:08.151Z,14.00
2019-03-10T12:55:37.272Z,14.10
2019-03-10T12:58:06.480Z,14.10
2019-03-10T13:00:35.689Z,14.20
2019-03-10T13:03:04.915Z,14.30
2019-03-10T13:05:34.196Z,14.40
2019-03-10T13:08:03.473Z,14.30
2019-03-10T13:10:33.647Z,14.40
2019-03-10T13:13:02.863Z,14.40
2019-03-10T13:15:32.389Z,14.40
2019-03-10T13:18:01.854Z,14.40
2019-03-10T13:20:30.859Z,14.50
2019-03-10T13:22:59.856Z,14.60
2019-03-10T13:25:28.950Z,14.70
2019-03-10T13:27:58.086Z,14.80
2019-03-10T13:30:27.395Z,14.90
2019-03-10T13:32:56.547Z,15.00
2019-03-10T13:35:25.811Z,15.00
2019-03-10T13:37:54.780Z,14.90
2019-03-10T13:40:23.973Z,14.90
2019-03-10T13:42:53.241Z,15.10
2019-03-10T13:45:22.322Z,15.20
2019-03-10T13:47:51.452Z,15.30
2019-03-10T13:50:20.511Z,15.30
2019-03-10T13:52:49.482Z,15.10
2019-03-10T13:55:18.533Z,15.10
2019-03-10T13:57:47.722Z,14.90
2019-03-10T14:00:26.047Z,14.90
2019-03-10T14:02:55.095Z,14.60
2019-03-10T14:05:24.323Z,14.40
2019-03-10T14:07:53.543Z,14.10
2019-03-10T14:10:22.573Z,13.80
2019-03-10T14:12:52.014Z,13.40
2019-03-10T14:15:21.296Z,13.20
2019-03-10T14:17:50.477Z,12.90
2019-03-10T14:20:19.762Z,12.90
2019-03-10T14:22:48.934Z,12.90
2019-03-10T14:25:18.174Z,12.90
2019-03-10T14:27:47.352Z,13.00
2019-03-10T14:30:18.794Z,12.90
2019-03-10T14:32:48.331Z,12.60
2019-03-10T14:35:17.740Z,12.50
2019-03-10T14:37:47.023Z,12.50
2019-03-10T14:40:22.591Z,12.50
2019-03-10T14:42:51.809Z,12.50
2019-03-10T14:45:20.949Z,12.50
2019-03-10T14:47:52.661Z,12.40
2019-03-10T14:50:21.888Z,12.20
2019-03-10T14:52:51.158Z,11.90
2019-03-10T14:55:21.432Z,11.70
2019-03-10T14:57:50.634Z,11.60
2019-03-10T15:00:27.443Z,11.40
2019-03-10T15:02:57.003Z,11.40
2019-03-10T15:05:26.087Z,11.30
2019-03-10T15:07:55.282Z,11.40
2019-03-10T15:10:24.395Z,11.50
2019-03-10T15:12:53.608Z,11.50
2019-03-10T15:15:23.405Z,11.60
2019-03-10T15:17:52.637Z,11.70
2019-03-10T15:20:22.129Z,11.80
2019-03-10T15:22:51.562Z,11.80
2019-03-10T15:25:21.759Z,11.80
2019-03-10T15:27:51.060Z,11.90
2019-03-10T15:30:23.168Z,12.00
2019-03-10T15:32:52.347Z,12.10
2019-03-10T15:35:21.687Z,12.10
2019-03-10T15:37:50.843Z,12.30
2019-03-10T15:40:20.074Z,12.30
2019-03-10T15:42:49.207Z,12.50
2019-03-10T15:45:19.154Z,12.60
2019-03-10T15:47:48.321Z,12.60
2019-03-10T15:50:29.539Z,12.70
2019-03-10T15:52:58.747Z,12.70
2019-03-10T15:55:28.093Z,12.80
2019-03-10T15:57:57.803Z,12.90
2019-03-10T16:00:28.570Z,12.90
2019-03-10T16:02:57.748Z,13.00
2019-03-10T16:05:27.112Z,13.00
2019-03-10T16:07:56.203Z,13.10
2019-03-10T16:10:25.349Z,13.10
2019-03-10T16:12:54.440Z,13.00
2019-03-10T16:15:25.560Z,13.00
2019-03-10T16:17:54.771Z,13.00
2019-03-10T16:20:24.162Z,13.00
2019-03-10T16:22:55.247Z,13.00
2019-03-10T16:25:24.185Z,12.90
2019-03-10T16:27:53.313Z,13.00
2019-03-10T16:30:26.465Z,13.00
2019-03-10T16:32:55.818Z,13.00
2019-03-10T16:35:24.966Z,12.90
2019-03-10T16:37:54.188Z,12.80
2019-03-10T16:40:23.392Z,12.80
2019-03-10T16:42:52.414Z,12.70
2019-03-10T16:45:22.277Z,12.60
2019-03-10T16:47:51.575Z,12.70
2019-03-10T16:50:22.689Z,12.70
2019-03-10T16:52:52.121Z,12.50
2019-03-10T16:55:21.260Z,12.50
2019-03-10T16:57:50.451Z,12.40
2019-03-10T17:00:21.339Z,12.40
2019-03-10T17:02:51.919Z,12.30
2019-03-10T17:05:21.862Z,12.40
2019-03-10T17:07:51.212Z,12.30
2019-03-10T17:10:23.247Z,12.40
2019-03-10T17:12:52.554Z,12.30
2019-03-10T17:15:22.981Z,12.30
2019-03-10T17:17:52.336Z,12.40
2019-03-10T17:20:21.766Z,12.40
2019-03-10T17:22:51.206Z,12.30
2019-03-10T17:25:20.375Z,12.30
2019-03-10T17:27:49.398Z,12.40
2019-03-10T17:30:22.784Z,12.40
2019-03-10T17:32:52.002Z,12.50
2019-03-10T17:35:21.652Z,12.40
2019-03-10T17:37:50.740Z,12.40
2019-03-10T17:40:21.068Z,12.30
2019-03-10T17:42:50.222Z,12.10
2019-03-10T17:45:20.059Z,12.00
2019-03-10T17:47:49.256Z,12.00
2019-03-10T17:50:19.173Z,11.90
2019-03-10T17:52:49.031Z,11.90
2019-03-10T17:55:19.576Z,11.90
2019-03-10T17:57:48.744Z,11.90
2019-03-10T18:00:25.909Z,11.80
2019-03-10T18:03:08.809Z,11.40
2019-03-10T18:05:38.053Z,11.10
2019-03-10T18:08:07.143Z,10.90
2019-03-10T18:10:36.443Z,10.60
2019-03-10T18:13:05.823Z,10.50
2019-03-10T18:15:34.965Z,10.50
2019-03-10T18:18:04.385Z,10.40
2019-03-10T18:20:33.581Z,10.40
2019-03-10T18:23:02.706Z,10.40
2019-03-10T18:25:31.996Z,10.30
2019-03-10T18:28:01.179Z,10.30
2019-03-10T18:30:30.392Z,10.20
2019-03-10T18:32:59.354Z,10.00
2019-03-10T18:35:28.517Z,9.90
2019-03-10T18:37:57.872Z,10.00
2019-03-10T18:40:27.940Z,9.90
2019-03-10T18:42:56.947Z,9.80
2019-03-10T18:45:26.013Z,9.80
2019-03-10T18:47:55.167Z,9.80
2019-03-10T18:50:25.485Z,9.90
2019-03-10T18:52:54.619Z,9.90
2019-03-10T18:55:23.784Z,9.90
2019-03-10T18:57:52.905Z,9.90
2019-03-10T19:00:26.091Z,9.80
2019-03-10T19:02:55.218Z,9.90
2019-03-10T19:05:24.466Z,10.00
2019-03-10T19:08:11.662Z,10.00
2019-03-10T19:10:40.848Z,10.00
2019-03-10T19:13:10.277Z,10.00
2019-03-10T19:42:56.685Z,9.90
2019-03-10T19:45:25.894Z,9.90
2019-03-10T19:47:54.947Z,9.90
2019-03-10T19:50:29.143Z,9.90
2019-03-10T19:52:58.311Z,10.00
2019-03-10T19:55:27.594Z,10.10
2019-03-10T19:57:56.575Z,10.10
2019-03-10T20:00:25.670Z,10.10
2019-03-10T20:02:54.687Z,10.10
2019-03-10T20:05:23.919Z,10.10
2019-03-10T20:07:52.858Z,10.10
2019-03-10T20:10:23.437Z,10.10
2019-03-10T20:12:52.537Z,10.10
2019-03-10T20:15:23.650Z,10.10
2019-03-10T20:17:53.041Z,10.10
2019-03-10T20:20:24.927Z,10.10
2019-03-10T20:22:54.022Z,10.10
2019-03-10T20:25:23.092Z,10.10
2019-03-10T20:35:21.188Z,10.10
2019-03-10T20:37:50.323Z,10.00
2019-03-10T21:00:23.439Z,9.70
2019-03-10T21:02:52.537Z,9.70
2019-03-10T21:05:21.684Z,9.70
2019-03-10T21:07:50.852Z,9.70
2019-03-10T21:10:24.364Z,9.60
2019-03-10T21:12:53.423Z,9.60
2019-03-10T21:15:25.863Z,9.60
2019-03-10T21:17:54.192Z,9.50
2019-03-10T21:20:26.565Z,9.50
2019-03-10T21:22:55.675Z,9.40
2019-03-10T21:25:32.611Z,9.40
2019-03-10T21:28:01.719Z,9.40
2019-03-10T21:30:31.934Z,9.40
2019-03-10T21:33:01.123Z,9.30
2019-03-10T21:35:32.942Z,9.40
2019-03-10T21:38:00.889Z,9.40
2019-03-10T21:40:34.315Z,9.40
2019-03-10T21:43:03.717Z,9.40
2019-03-10T21:45:33.272Z,9.40
2019-03-10T21:48:03.349Z,9.50
2019-03-10T21:50:32.406Z,9.40
2019-03-10T21:53:01.452Z,9.40
2019-03-10T21:55:30.434Z,9.40
2019-03-10T21:57:59.466Z,9.30
2019-03-10T22:00:28.482Z,9.30
2019-03-10T22:02:57.617Z,9.30
2019-03-10T22:05:26.572Z,9.20
2019-03-10T22:07:55.781Z,9.20
2019-03-10T22:10:27.801Z,9.20
2019-03-10T22:12:55.711Z,9.20
2019-03-10T22:15:24.704Z,9.10
2019-03-10T22:17:53.672Z,9.10
2019-03-10T22:20:22.619Z,9.00
2019-03-10T22:22:51.620Z,9.00
2019-03-10T22:25:20.647Z,8.90
2019-03-10T22:27:49.600Z,9.00
2019-03-10T22:30:22.797Z,8.90
2019-03-10T22:32:52.172Z,8.90
2019-03-10T22:35:21.367Z,8.80
2019-03-10T22:37:50.525Z,8.80
2019-03-10T22:40:19.590Z,8.70
2019-03-10T22:42:48.540Z,8.70
2019-03-10T22:45:20.780Z,8.70
2019-03-10T22:47:50.179Z,8.50
2019-03-10T22:50:19.287Z,8.50
2019-03-10T22:52:48.297Z,8.50
2019-03-10T22:55:17.344Z,8.50
2019-03-10T22:57:46.379Z,8.50
2019-03-10T23:00:24.942Z,8.50
2019-03-10T23:02:53.923Z,8.50
2019-03-10T23:05:23.005Z,8.50
2019-03-10T23:07:52.019Z,8.50
2019-03-10T23:10:20.993Z,8.30
2019-03-10T23:12:50.088Z,8.30
2019-03-10T23:15:19.136Z,8.20
2019-03-10T23:17:48.200Z,8.20
2019-03-10T23:20:17.321Z,8.20
2019-03-10T23:22:46.438Z,8.20
2019-03-10T23:25:15.481Z,8.20
2019-03-10T23:27:44.585Z,8.10
2019-03-10T23:30:19.880Z,8.20
2019-03-10T23:32:48.820Z,8.10
2019-03-10T23:35:17.789Z,8.10
2019-03-10T23:37:46.737Z,8.10
2019-03-10T23:40:17.991Z,8.00
2019-03-10T23:42:48.600Z,8.00
2019-03-10T23:45:18.576Z,8.00
2019-03-10T23:47:47.826Z,8.00
2019-03-10T23:50:18.720Z,7.90
2019-03-10T23:52:48.097Z,7.90
2019-03-10T23:55:17.103Z,7.90
2019-03-10T23:57:47.164Z,8.00
